createdAt,value
2023-04-09T00:00:32.629Z,6.40
2023-04-09T00:01:32.648Z,1.30
2023-04-09T00:02:32.669Z,1.60
2023-04-09T00:03:32.691Z,3.20
2023-04-09T00:04:32.668Z,1.70
2023-04-09T00:05:32.613Z,1.10
2023-04-09T00:06:32.624Z,1.90
2023-04-09T00:07:32.591Z,2.10
2023-04-09T00:08:32.583Z,1.30
2023-04-09T00:09:32.576Z,2.00
2023-04-09T00:10:32.608Z,3.60
2023-04-09T00:11:32.569Z,6.10
2023-04-09T00:12:32.573Z,1.70
2023-04-09T00:13:39.267Z,2.60
2023-04-09T00:14:32.562Z,1.50
2023-04-09T00:15:32.573Z,2.20
2023-04-09T00:16:32.622Z,2.20
2023-04-09T00:17:32.581Z,2.10
2023-04-09T00:18:32.566Z,1.60
2023-04-09T00:19:32.542Z,1.80
2023-04-09T00:20:32.551Z,1.10
2023-04-09T00:21:32.551Z,1.40
2023-04-09T00:22:32.531Z,2.10
2023-04-09T00:23:32.521Z,2.20
2023-04-09T00:24:32.553Z,1.80
2023-04-09T00:25:32.534Z,2.60
2023-04-09T00:26:32.554Z,1.60
2023-04-09T00:27:32.522Z,1.30
2023-04-09T00:28:32.510Z,1.90
2023-04-09T00:29:32.528Z,4.00
2023-04-09T00:30:32.495Z,2.00
2023-04-09T00:31:32.582Z,1.80
2023-04-09T00:32:32.546Z,2.40
2023-04-09T00:33:32.496Z,4.60
2023-04-09T00:34:32.514Z,1.60
2023-04-09T00:35:32.494Z,2.10
2023-04-09T00:36:32.495Z,2.00
2023-04-09T00:37:32.470Z,1.80
2023-04-09T00:38:32.464Z,2.40
2023-04-09T00:39:32.474Z,4.40
2023-04-09T00:40:32.462Z,1.40
2023-04-09T00:41:32.503Z,2.40
2023-04-09T00:42:32.492Z,3.70
2023-04-09T00:43:32.455Z,2.10
2023-04-09T00:44:32.465Z,1.60
2023-04-09T00:45:32.472Z,1.60
2023-04-09T00:46:32.443Z,3.00
2023-04-09T00:47:32.485Z,1.80
2023-04-09T00:48:32.455Z,2.70
2023-04-09T00:49:32.442Z,1.50
2023-04-09T00:50:32.442Z,1.80
2023-04-09T00:51:32.435Z,3.40
2023-04-09T00:52:32.451Z,1.90
2023-04-09T00:53:32.424Z,3.10
2023-04-09T00:54:32.410Z,1.10
2023-04-09T00:55:32.420Z,1.40
2023-04-09T00:56:32.412Z,1.80
2023-04-09T00:57:32.412Z,1.50
2023-04-09T00:58:32.437Z,1.60
2023-04-09T00:59:32.407Z,1.40
2023-04-09T01:00:32.397Z,1.80
2023-04-09T01:01:32.504Z,1.90
2023-04-09T01:02:32.471Z,1.40
2023-04-09T01:03:32.446Z,2.50
2023-04-09T01:04:32.394Z,1.20
2023-04-09T01:05:32.376Z,2.30
2023-04-09T01:06:32.365Z,3.30
2023-04-09T01:07:32.364Z,3.00
2023-04-09T01:08:32.364Z,1.90
2023-04-09T01:09:32.350Z,2.50
2023-04-09T01:10:32.357Z,1.90
2023-04-09T01:11:32.361Z,1.30
2023-04-09T01:12:32.345Z,2.40
2023-04-09T01:13:32.351Z,1.60
2023-04-09T01:14:32.367Z,2.40
2023-04-09T01:15:32.324Z,1.70
2023-04-09T01:16:32.354Z,1.40
2023-04-09T01:17:32.353Z,1.70
2023-04-09T01:18:32.320Z,1.70
2023-04-09T01:19:32.309Z,2.00
2023-04-09T01:20:32.323Z,1.30
2023-04-09T01:21:32.322Z,2.30
2023-04-09T01:22:32.314Z,4.00
2023-04-09T01:23:32.301Z,2.90
2023-04-09T01:24:32.297Z,1.70
2023-04-09T01:25:32.300Z,1.80
2023-04-09T01:26:32.291Z,3.10
2023-04-09T01:27:32.280Z,1.80
2023-04-09T01:28:32.305Z,1.50
2023-04-09T01:29:32.318Z,5.40
2023-04-09T01:30:32.326Z,1.60
2023-04-09T01:31:32.321Z,1.60
2023-04-09T01:32:32.340Z,1.50
2023-04-09T01:33:32.269Z,1.40
2023-04-09T01:34:32.250Z,2.10
2023-04-09T01:35:32.297Z,1.60
2023-04-09T01:36:32.276Z,1.40
2023-04-09T01:37:32.249Z,2.50
2023-04-09T01:38:32.258Z,1.50
2023-04-09T01:39:32.259Z,2.50
2023-04-09T01:40:32.233Z,2.30
2023-04-09T01:41:32.224Z,2.20
2023-04-09T01:42:32.242Z,4.30
2023-04-09T01:43:32.214Z,2.40
2023-04-09T01:44:32.268Z,1.50
2023-04-09T01:45:32.234Z,2.40
2023-04-09T01:46:32.299Z,1.90
2023-04-09T01:47:32.282Z,1.60
2023-04-09T01:48:32.221Z,3.20
2023-04-09T01:49:32.228Z,1.90
2023-04-09T01:50:32.225Z,1.60
2023-04-09T01:51:32.186Z,2.70
2023-04-09T01:52:32.188Z,1.70
2023-04-09T01:53:32.206Z,2.40
2023-04-09T01:54:32.181Z,1.90
2023-04-09T01:55:32.182Z,1.50
2023-04-09T01:56:32.183Z,2.00
2023-04-09T01:57:32.192Z,1.70
2023-04-09T01:58:32.184Z,1.90
2023-04-09T01:59:32.216Z,1.90
2023-04-09T02:00:32.177Z,1.60
2023-04-09T02:01:32.259Z,2.10
2023-04-09T02:02:32.270Z,1.40
2023-04-09T02:03:32.210Z,1.90
2023-04-09T02:04:32.146Z,1.30
2023-04-09T02:05:32.153Z,2.40
2023-04-09T02:06:32.144Z,2.40
2023-04-09T02:07:32.129Z,2.40
2023-04-09T02:08:32.130Z,2.90
2023-04-09T02:09:32.117Z,1.40
2023-04-09T02:10:32.139Z,2.20
2023-04-09T02:11:32.128Z,1.90
2023-04-09T02:12:32.123Z,1.20
2023-04-09T02:13:32.115Z,8.40
2023-04-09T02:14:32.123Z,1.70
2023-04-09T02:15:32.150Z,2.10
2023-04-09T02:16:32.102Z,2.60
2023-04-09T02:17:32.121Z,1.70
2023-04-09T02:18:32.124Z,2.00
2023-04-09T02:19:32.100Z,2.10
2023-04-09T02:20:32.088Z,1.50
2023-04-09T02:21:32.073Z,1.40
2023-04-09T02:22:32.079Z,1.90
2023-04-09T02:23:32.095Z,1.90
2023-04-09T02:24:32.074Z,1.70
2023-04-09T02:25:32.090Z,1.20
2023-04-09T02:26:32.082Z,2.20
2023-04-09T02:27:32.061Z,2.60
2023-04-09T02:28:32.080Z,2.00
2023-04-09T02:29:32.055Z,1.50
2023-04-09T02:30:32.050Z,1.30
2023-04-09T02:31:32.114Z,1.60
2023-04-09T02:32:32.072Z,1.60
2023-04-09T02:33:32.034Z,1.10
2023-04-09T02:34:32.059Z,2.80
2023-04-09T02:35:32.121Z,2.20
2023-04-09T02:36:32.021Z,1.70
2023-04-09T02:37:32.027Z,2.70
2023-04-09T02:38:32.033Z,3.10
2023-04-09T02:39:32.053Z,4.30
2023-04-09T02:40:32.007Z,2.40
2023-04-09T02:41:32.007Z,1.40
2023-04-09T02:42:32.002Z,2.40
2023-04-09T02:43:32.013Z,2.10
2023-04-09T02:44:32.022Z,2.70
2023-04-09T02:45:31.983Z,2.20
2023-04-09T02:46:32.005Z,2.00
2023-04-09T02:47:32.074Z,2.00
2023-04-09T02:48:31.979Z,1.30
2023-04-09T02:49:31.983Z,1.60
2023-04-09T02:50:32.008Z,1.60
2023-04-09T02:51:31.976Z,1.60
2023-04-09T02:52:31.968Z,3.80
2023-04-09T02:53:31.956Z,1.40
2023-04-09T02:54:31.955Z,2.50
2023-04-09T02:55:31.962Z,2.50
2023-04-09T02:56:31.941Z,1.60
2023-04-09T02:57:33.288Z,5.00
2023-04-09T02:58:31.935Z,1.40
2023-04-09T02:59:31.938Z,2.50
2023-04-09T03:00:31.923Z,3.10
2023-04-09T03:01:32.015Z,1.60
2023-04-09T03:02:32.155Z,2.10
2023-04-09T03:03:32.006Z,1.60
2023-04-09T03:04:31.929Z,1.70
2023-04-09T03:05:31.918Z,3.20
2023-04-09T03:06:31.938Z,1.90
2023-04-09T03:07:31.912Z,1.90
2023-04-09T03:08:31.888Z,2.20
2023-04-09T03:09:31.893Z,1.60
2023-04-09T03:10:31.888Z,1.30
2023-04-09T03:11:31.908Z,1.90
2023-04-09T03:12:31.893Z,1.60
2023-04-09T03:13:31.887Z,2.90
2023-04-09T03:14:32.885Z,2.10
2023-04-09T03:15:31.883Z,4.80
2023-04-09T03:16:31.868Z,1.90
2023-04-09T03:17:31.906Z,1.70
2023-04-09T03:18:31.860Z,1.80
2023-04-09T03:19:31.863Z,2.10
2023-04-09T03:20:31.869Z,1.20
2023-04-09T03:21:31.847Z,1.30
2023-04-09T03:22:31.882Z,1.90
2023-04-09T03:23:31.850Z,1.60
2023-04-09T03:24:31.839Z,1.60
2023-04-09T03:25:31.852Z,1.40
2023-04-09T03:26:31.830Z,2.40
2023-04-09T03:27:31.848Z,5.10
2023-04-09T03:28:31.833Z,1.30
2023-04-09T03:29:31.812Z,1.50
2023-04-09T03:30:31.825Z,1.70
2023-04-09T03:31:31.850Z,1.60
2023-04-09T03:32:31.824Z,2.10
2023-04-09T03:33:31.805Z,0.90
2023-04-09T03:34:31.797Z,2.50
2023-04-09T03:35:31.846Z,2.10
2023-04-09T03:36:31.819Z,1.70
2023-04-09T03:37:31.808Z,1.90
2023-04-09T03:38:31.797Z,1.60
2023-04-09T03:39:31.800Z,2.00
2023-04-09T03:40:31.764Z,1.70
2023-04-09T03:41:31.780Z,2.00
2023-04-09T03:42:31.761Z,1.70
2023-04-09T03:43:31.765Z,2.70
2023-04-09T03:44:31.783Z,1.60
2023-04-09T03:45:31.753Z,1.40
2023-04-09T03:46:31.789Z,3.60
2023-04-09T03:47:31.769Z,1.30
2023-04-09T03:48:31.740Z,2.50
2023-04-09T03:49:31.753Z,2.10
2023-04-09T03:50:31.725Z,2.10
2023-04-09T03:51:31.724Z,5.90
2023-04-09T03:52:31.730Z,1.40
2023-04-09T03:53:31.728Z,1.60
2023-04-09T03:54:31.768Z,1.30
2023-04-09T03:55:31.732Z,1.50
2023-04-09T03:56:31.709Z,2.60
2023-04-09T03:57:31.701Z,1.60
2023-04-09T03:58:31.702Z,1.50
2023-04-09T03:59:31.687Z,1.70
2023-04-09T04:00:31.714Z,2.00
2023-04-09T04:01:31.714Z,1.00
2023-04-09T04:02:31.734Z,2.00
2023-04-09T04:03:31.822Z,3.10
2023-04-09T04:04:31.727Z,1.40
2023-04-09T04:05:31.675Z,1.70
2023-04-09T04:06:31.665Z,2.00
2023-04-09T04:07:31.689Z,2.20
2023-04-09T04:08:31.677Z,1.20
2023-04-09T04:09:31.663Z,1.70
2023-04-09T04:10:31.666Z,2.20
2023-04-09T04:11:31.649Z,1.40
2023-04-09T04:12:31.633Z,1.70
2023-04-09T04:13:31.720Z,2.60
2023-04-09T04:14:31.639Z,1.80
2023-04-09T04:15:31.638Z,2.70
2023-04-09T04:16:31.678Z,1.60
2023-04-09T04:17:31.648Z,1.90
2023-04-09T04:18:31.627Z,1.90
2023-04-09T04:19:31.626Z,2.40
2023-04-09T04:20:31.608Z,2.00
2023-04-09T04:21:31.606Z,2.00
2023-04-09T04:22:31.606Z,1.80
2023-04-09T04:23:31.614Z,4.00
2023-04-09T04:24:31.582Z,1.50
2023-04-09T04:25:31.594Z,2.00
2023-04-09T04:26:31.615Z,1.70
2023-04-09T04:27:31.580Z,2.10
2023-04-09T04:28:31.569Z,1.30
2023-04-09T04:29:31.583Z,3.80
2023-04-09T04:30:31.598Z,1.50
2023-04-09T04:31:31.603Z,2.60
2023-04-09T04:32:31.587Z,2.70
2023-04-09T04:33:31.572Z,3.50
2023-04-09T04:34:31.559Z,1.60
2023-04-09T04:35:31.580Z,1.90
2023-04-09T04:36:31.566Z,7.20
2023-04-09T04:37:31.558Z,1.60
2023-04-09T04:38:31.541Z,1.90
2023-04-09T04:39:31.555Z,2.30
2023-04-09T04:40:31.535Z,1.40
2023-04-09T04:41:31.557Z,1.30
2023-04-09T04:42:31.530Z,1.90
2023-04-09T04:43:31.522Z,1.80
2023-04-09T04:44:31.518Z,1.10
2023-04-09T04:45:31.544Z,2.00
2023-04-09T04:46:31.552Z,1.40
2023-04-09T04:47:31.561Z,1.60
2023-04-09T04:48:31.500Z,1.60
2023-04-09T04:49:31.501Z,3.10
2023-04-09T04:50:31.493Z,2.20
2023-04-09T04:51:31.521Z,2.30
2023-04-09T04:52:31.487Z,1.70
2023-04-09T04:53:31.495Z,1.50
2023-04-09T04:54:31.472Z,6.10
2023-04-09T04:55:31.487Z,2.30
2023-04-09T04:56:31.468Z,3.30
2023-04-09T04:57:31.446Z,1.90
2023-04-09T04:58:31.504Z,1.20
2023-04-09T04:59:31.451Z,4.60
2023-04-09T05:00:31.466Z,2.20
2023-04-09T05:01:31.498Z,4.80
2023-04-09T05:02:31.553Z,1.60
2023-04-09T05:03:31.481Z,1.90
2023-04-09T05:04:31.445Z,1.30
2023-04-09T05:05:31.431Z,2.10
2023-04-09T05:06:31.428Z,2.20
2023-04-09T05:07:31.436Z,4.50
2023-04-09T05:08:31.429Z,1.50
2023-04-09T05:09:31.483Z,1.40
2023-04-09T05:10:31.409Z,1.90
2023-04-09T05:11:31.408Z,2.70
2023-04-09T05:12:31.407Z,1.50
2023-04-09T05:13:31.399Z,1.30
2023-04-09T05:14:31.424Z,1.70
2023-04-09T05:15:31.387Z,3.20
2023-04-09T05:16:31.412Z,1.90
2023-04-09T05:17:31.440Z,1.50
2023-04-09T05:18:31.364Z,1.70
2023-04-09T05:19:31.365Z,1.80
2023-04-09T05:20:31.358Z,2.20
2023-04-09T05:21:31.351Z,1.40
2023-04-09T05:22:31.356Z,4.40
2023-04-09T05:23:31.368Z,2.20
2023-04-09T05:24:31.349Z,1.70
2023-04-09T05:25:31.344Z,1.50
2023-04-09T05:26:31.344Z,2.60
2023-04-09T05:27:31.347Z,2.30
2023-04-09T05:28:31.325Z,2.10
2023-04-09T05:29:31.324Z,3.10
2023-04-09T05:30:31.347Z,1.20
2023-04-09T05:31:31.318Z,1.40
2023-04-09T05:32:31.351Z,1.70
2023-04-09T05:33:31.302Z,1.50
2023-04-09T05:34:31.301Z,2.40
2023-04-09T05:35:31.342Z,1.50
2023-04-09T05:36:31.298Z,2.30
2023-04-09T05:37:31.304Z,1.60
2023-04-09T05:38:31.305Z,2.50
2023-04-09T05:39:31.300Z,1.10
2023-04-09T05:40:31.282Z,2.20
2023-04-09T05:41:31.277Z,7.30
2023-04-09T05:42:31.276Z,2.60
2023-04-09T05:43:31.267Z,1.20
2023-04-09T05:44:31.257Z,1.40
2023-04-09T05:45:31.268Z,4.50
2023-04-09T05:46:31.302Z,2.00
2023-04-09T05:47:31.270Z,1.90
2023-04-09T05:48:31.255Z,1.70
2023-04-09T05:49:31.261Z,2.80
2023-04-09T05:50:34.386Z,4.40
2023-04-09T05:51:31.242Z,2.30
2023-04-09T05:52:31.226Z,5.50
2023-04-09T05:53:31.226Z,2.20
2023-04-09T05:54:31.232Z,2.60
2023-04-09T05:55:31.235Z,1.50
2023-04-09T05:56:31.223Z,2.80
2023-04-09T05:57:31.226Z,1.90
2023-04-09T05:58:31.217Z,1.60
2023-04-09T05:59:31.228Z,1.50
2023-04-09T06:00:31.195Z,1.80
2023-04-09T06:01:31.260Z,1.60
2023-04-09T06:02:31.356Z,2.00
2023-04-09T06:03:31.333Z,2.50
2023-04-09T06:04:31.218Z,1.50
2023-04-09T06:05:31.193Z,1.50
2023-04-09T06:06:31.183Z,2.20
2023-04-09T06:07:31.194Z,1.80
2023-04-09T06:08:31.179Z,6.40
2023-04-09T06:09:31.164Z,1.40
2023-04-09T06:10:31.161Z,4.00
2023-04-09T06:11:31.168Z,1.50
2023-04-09T06:12:31.159Z,1.90
2023-04-09T06:13:31.168Z,1.50
2023-04-09T06:14:31.142Z,2.00
2023-04-09T06:15:31.174Z,1.70
2023-04-09T06:16:31.149Z,2.10
2023-04-09T06:17:31.162Z,1.20
2023-04-09T06:18:31.279Z,2.10
2023-04-09T06:19:31.122Z,1.30
2023-04-09T06:20:31.132Z,1.20
2023-04-09T06:21:31.113Z,1.50
2023-04-09T06:22:31.101Z,1.40
2023-04-09T06:23:31.108Z,1.60
2023-04-09T06:24:31.124Z,1.50
2023-04-09T06:25:31.101Z,2.70
2023-04-09T06:26:31.087Z,4.10
2023-04-09T06:27:31.093Z,1.50
2023-04-09T06:28:31.085Z,4.90
2023-04-09T06:29:31.092Z,2.20
2023-04-09T06:30:31.086Z,3.00
2023-04-09T06:31:31.110Z,1.80
2023-04-09T06:32:33.609Z,1.70
2023-04-09T06:33:31.089Z,1.40
2023-04-09T06:34:31.089Z,1.80
2023-04-09T06:35:31.098Z,1.40
2023-04-09T06:36:31.069Z,2.60
2023-04-09T06:37:31.065Z,2.30
2023-04-09T06:38:31.047Z,4.00
2023-04-09T06:39:31.038Z,1.70
2023-04-09T06:40:31.045Z,1.80
2023-04-09T06:41:31.046Z,1.20
2023-04-09T06:42:31.043Z,1.60
2023-04-09T06:43:31.032Z,1.60
2023-04-09T06:44:31.031Z,1.70
2023-04-09T06:45:31.021Z,1.20
2023-04-09T06:46:31.080Z,1.80
2023-04-09T06:47:31.033Z,1.70
2023-04-09T06:48:31.018Z,1.30
2023-04-09T06:49:31.035Z,4.30
2023-04-09T06:50:31.019Z,2.90
2023-04-09T06:51:30.993Z,2.30
2023-04-09T06:52:30.997Z,2.10
2023-04-09T06:53:31.001Z,2.00
2023-04-09T06:54:30.992Z,1.50
2023-04-09T06:55:30.978Z,1.50
2023-04-09T06:56:30.970Z,1.70
2023-04-09T06:57:30.981Z,2.20
2023-04-09T06:58:30.957Z,2.30
2023-04-09T06:59:30.957Z,1.80
2023-04-09T07:00:30.963Z,1.10
2023-04-09T07:01:30.986Z,1.20
2023-04-09T07:02:31.208Z,1.30
2023-04-09T07:03:31.175Z,1.40
2023-04-09T07:04:31.112Z,1.60
2023-04-09T07:05:30.946Z,1.40
2023-04-09T07:06:30.963Z,1.40
2023-04-09T07:07:30.942Z,1.50
2023-04-09T07:08:30.939Z,5.00
2023-04-09T07:09:30.923Z,2.00
2023-04-09T07:10:30.957Z,1.40
2023-04-09T07:11:30.952Z,2.40
2023-04-09T07:12:30.934Z,1.10
2023-04-09T07:13:30.916Z,1.60
2023-04-09T07:14:30.932Z,1.10
2023-04-09T07:15:30.947Z,4.50
2023-04-09T07:16:30.991Z,1.60
2023-04-09T07:17:30.914Z,2.40
2023-04-09T07:18:30.910Z,1.10
2023-04-09T07:19:30.893Z,3.10
2023-04-09T07:20:30.891Z,1.90
2023-04-09T07:21:30.890Z,1.60
2023-04-09T07:22:30.950Z,1.20
2023-04-09T07:23:30.935Z,1.10
2023-04-09T07:24:30.877Z,2.10
2023-04-09T07:25:30.888Z,6.60
2023-04-09T07:26:30.866Z,2.80
2023-04-09T07:27:30.872Z,1.80
2023-04-09T07:28:30.856Z,1.50
2023-04-09T07:29:30.873Z,2.90
2023-04-09T07:30:30.860Z,1.30
2023-04-09T07:31:30.893Z,2.30
2023-04-09T07:32:31.051Z,1.40
2023-04-09T07:33:30.848Z,1.60
2023-04-09T07:34:31.088Z,3.00
2023-04-09T07:35:30.855Z,1.80
2023-04-09T07:36:30.847Z,3.50
2023-04-09T07:37:30.870Z,7.50
2023-04-09T07:38:30.843Z,10.20
2023-04-09T07:39:30.829Z,5.30
2023-04-09T07:40:30.836Z,10.50
2023-04-09T07:41:30.832Z,4.50
2023-04-09T07:42:30.829Z,5.20
2023-04-09T07:43:30.823Z,6.00
2023-04-09T07:44:30.808Z,7.20
2023-04-09T07:45:30.818Z,9.40
2023-04-09T07:46:30.848Z,4.40
2023-04-09T07:47:30.806Z,4.10
2023-04-09T07:48:30.818Z,7.70
2023-04-09T07:49:30.799Z,24.80
2023-04-09T07:50:30.814Z,51.90
2023-04-09T07:51:30.781Z,52.50
2023-04-09T07:52:30.801Z,31.80
2023-04-09T07:53:30.802Z,39.30
2023-04-09T07:54:30.804Z,36.90
2023-04-09T07:55:30.800Z,24.90
2023-04-09T07:56:30.791Z,23.70
2023-04-09T07:57:30.781Z,29.10
2023-04-09T07:58:30.773Z,36.00
2023-04-09T07:59:30.762Z,31.70
2023-04-09T08:00:30.775Z,35.10
2023-04-09T08:01:30.753Z,28.40
2023-04-09T08:02:30.948Z,27.50
2023-04-09T08:03:30.966Z,29.30
2023-04-09T08:04:30.849Z,19.90
2023-04-09T08:05:30.766Z,24.70
2023-04-09T08:06:30.768Z,23.60
2023-04-09T08:07:30.765Z,33.00
2023-04-09T08:08:30.767Z,31.30
2023-04-09T08:09:30.739Z,30.70
2023-04-09T08:10:30.774Z,23.70
2023-04-09T08:11:30.750Z,20.80
2023-04-09T08:12:30.758Z,20.80
2023-04-09T08:13:30.730Z,4.70
2023-04-09T08:14:30.740Z,5.10
2023-04-09T08:15:30.750Z,5.60
2023-04-09T08:16:30.763Z,4.30
2023-04-09T08:17:30.754Z,2.80
2023-04-09T08:18:30.747Z,6.50
2023-04-09T08:19:30.768Z,7.00
2023-04-09T08:20:30.760Z,3.60
2023-04-09T08:21:30.715Z,3.30
2023-04-09T08:22:30.708Z,3.70
2023-04-09T08:23:30.714Z,3.40
2023-04-09T08:24:30.694Z,5.10
2023-04-09T08:25:30.716Z,2.30
2023-04-09T08:26:30.722Z,3.40
2023-04-09T08:27:30.673Z,3.40
2023-04-09T08:28:30.674Z,2.40
2023-04-09T08:29:30.689Z,2.10
2023-04-09T08:30:30.676Z,4.80
2023-04-09T08:31:30.680Z,5.40
2023-04-09T08:32:30.682Z,4.00
2023-04-09T08:33:30.653Z,5.00
2023-04-09T08:34:30.645Z,1.70
2023-04-09T08:35:30.626Z,1.30
2023-04-09T08:36:30.650Z,3.00
2023-04-09T08:37:30.636Z,3.30
2023-04-09T08:38:30.610Z,4.50
2023-04-09T08:39:30.603Z,2.10
2023-04-09T08:40:30.610Z,1.50
2023-04-09T08:41:30.662Z,1.90
2023-04-09T08:42:30.616Z,2.20
2023-04-09T08:43:52.524Z,3.50
2023-04-09T08:44:30.588Z,8.10
2023-04-09T08:45:30.596Z,2.10
2023-04-09T08:46:30.584Z,1.90
2023-04-09T08:47:30.581Z,1.30
2023-04-09T08:48:30.609Z,1.60
2023-04-09T08:49:30.552Z,2.40
2023-04-09T08:50:30.617Z,1.90
2023-04-09T08:51:30.535Z,1.60
2023-04-09T08:52:30.523Z,2.10
2023-04-09T08:53:30.506Z,1.50
2023-04-09T08:54:30.532Z,1.00
2023-04-09T08:55:30.494Z,1.40
2023-04-09T08:56:30.492Z,1.30
2023-04-09T08:57:30.569Z,1.20
2023-04-09T08:58:30.508Z,3.70
2023-04-09T08:59:30.468Z,1.50
2023-04-09T09:00:30.490Z,1.40
2023-04-09T09:01:30.517Z,1.30
2023-04-09T09:02:30.529Z,1.10
2023-04-09T09:03:30.530Z,5.10
2023-04-09T09:04:30.488Z,1.90
2023-04-09T09:05:30.440Z,1.60
2023-04-09T09:06:30.424Z,1.80
2023-04-09T09:07:30.423Z,1.90
2023-04-09T09:08:30.431Z,1.50
2023-04-09T09:09:30.504Z,1.90
2023-04-09T09:10:30.414Z,1.60
2023-04-09T09:11:30.405Z,1.40
2023-04-09T09:12:30.386Z,3.00
2023-04-09T09:13:30.398Z,1.30
2023-04-09T09:14:30.481Z,1.60
2023-04-09T09:15:30.364Z,1.70
2023-04-09T09:16:30.409Z,2.20
2023-04-09T09:17:30.435Z,1.40
2023-04-09T09:18:30.364Z,1.50
2023-04-09T09:19:30.372Z,1.50
2023-04-09T09:20:30.349Z,2.30
2023-04-09T09:21:30.323Z,1.70
2023-04-09T09:22:30.341Z,1.80
2023-04-09T09:23:30.308Z,1.60
2023-04-09T09:24:30.322Z,1.20
2023-04-09T09:25:30.297Z,1.70
2023-04-09T09:26:30.289Z,1.50
2023-04-09T09:27:30.276Z,1.40
2023-04-09T09:28:30.304Z,1.90
2023-04-09T09:29:30.275Z,2.10
2023-04-09T09:30:30.279Z,2.00
2023-04-09T09:31:30.365Z,2.00
2023-04-09T09:32:30.323Z,1.40
2023-04-09T09:33:30.240Z,1.50
2023-04-09T09:34:30.239Z,1.10
2023-04-09T09:35:30.257Z,1.30
2023-04-09T09:36:30.232Z,1.40
2023-04-09T09:37:30.225Z,1.80
2023-04-09T09:38:30.226Z,1.50
2023-04-09T09:39:30.208Z,3.20
2023-04-09T09:40:30.193Z,2.40
2023-04-09T09:41:30.183Z,1.60
2023-04-09T09:42:30.196Z,1.70
2023-04-09T09:43:30.167Z,1.40
2023-04-09T09:44:30.198Z,1.40
2023-04-09T09:45:30.186Z,1.20
2023-04-09T09:46:30.198Z,1.60
2023-04-09T09:47:30.178Z,2.80
2023-04-09T09:48:30.145Z,4.10
2023-04-09T09:49:30.141Z,1.80
2023-04-09T09:50:30.123Z,2.10
2023-04-09T09:51:30.123Z,7.10
2023-04-09T09:52:30.135Z,2.60
2023-04-09T09:53:30.094Z,1.90
2023-04-09T09:54:30.104Z,2.10
2023-04-09T09:55:30.091Z,1.50
2023-04-09T09:56:30.101Z,2.10
2023-04-09T09:57:30.108Z,1.30
2023-04-09T09:58:30.070Z,2.40
2023-04-09T09:59:30.081Z,2.60
2023-04-09T10:00:30.054Z,1.50
2023-04-09T10:01:30.101Z,1.20
2023-04-09T10:02:30.282Z,3.40
2023-04-09T10:03:30.071Z,1.50
2023-04-09T10:04:30.096Z,1.30
2023-04-09T10:05:30.029Z,2.40
2023-04-09T10:06:30.025Z,1.30
2023-04-09T10:07:30.028Z,1.60
2023-04-09T10:08:30.014Z,1.10
2023-04-09T10:09:29.999Z,1.20
2023-04-09T10:10:30.000Z,1.10
2023-04-09T10:11:29.994Z,1.70
2023-04-09T10:12:29.978Z,1.30
2023-04-09T10:13:29.981Z,1.00
2023-04-09T10:14:29.990Z,2.50
2023-04-09T10:15:29.979Z,1.90
2023-04-09T10:16:30.763Z,2.90
2023-04-09T10:17:29.978Z,1.10
2023-04-09T10:18:29.979Z,1.30
2023-04-09T10:19:29.947Z,1.10
2023-04-09T10:20:29.942Z,1.40
2023-04-09T10:21:29.917Z,1.30
2023-04-09T10:22:29.931Z,1.50
2023-04-09T10:23:29.935Z,5.80
2023-04-09T10:24:29.918Z,2.80
2023-04-09T10:25:29.903Z,1.50
2023-04-09T10:26:29.914Z,2.30
2023-04-09T10:27:29.920Z,1.00
2023-04-09T10:28:29.887Z,3.10
2023-04-09T10:29:29.910Z,1.30
2023-04-09T10:30:29.890Z,1.30
2023-04-09T10:31:29.940Z,1.30
2023-04-09T10:32:29.888Z,1.50
2023-04-09T10:33:29.862Z,1.30
2023-04-09T10:34:29.898Z,1.70
2023-04-09T10:35:29.856Z,1.20
2023-04-09T10:36:29.876Z,1.80
2023-04-09T10:37:29.852Z,1.00
2023-04-09T10:38:29.846Z,1.10
2023-04-09T10:39:29.919Z,2.20
2023-04-09T10:40:29.833Z,1.30
2023-04-09T10:41:29.831Z,1.00
2023-04-09T10:42:29.831Z,1.30
2023-04-09T10:43:29.821Z,1.20
2023-04-09T10:44:29.822Z,1.10
2023-04-09T10:45:29.822Z,1.00
2023-04-09T10:46:29.906Z,1.50
2023-04-09T10:47:29.923Z,3.40
2023-04-09T10:48:29.812Z,2.00
2023-04-09T10:49:29.805Z,1.50
2023-04-09T10:50:29.818Z,1.00
2023-04-09T10:51:29.794Z,1.30
2023-04-09T10:52:29.799Z,1.10
2023-04-09T10:53:29.784Z,1.90
2023-04-09T10:54:29.792Z,1.50
2023-04-09T10:55:29.767Z,1.30
2023-04-09T10:56:29.785Z,1.10
2023-04-09T10:57:29.781Z,1.40
2023-04-09T10:58:29.770Z,1.20
2023-04-09T10:59:29.754Z,1.00
2023-04-09T11:00:29.758Z,1.10
2023-04-09T11:01:29.779Z,1.30
2023-04-09T11:02:29.872Z,2.00
2023-04-09T11:03:29.878Z,1.60
2023-04-09T11:04:29.791Z,1.50
2023-04-09T11:05:29.736Z,0.90
2023-04-09T11:06:29.762Z,4.60
2023-04-09T11:07:29.743Z,1.70
2023-04-09T11:08:29.727Z,1.30
2023-04-09T11:09:29.720Z,1.10
2023-04-09T11:10:29.734Z,1.20
2023-04-09T11:11:29.704Z,1.60
2023-04-09T11:12:29.716Z,4.00
2023-04-09T11:13:29.696Z,1.50
2023-04-09T11:14:29.718Z,1.60
2023-04-09T11:15:29.691Z,2.70
2023-04-09T11:16:29.748Z,2.00
2023-04-09T11:17:29.719Z,1.40
2023-04-09T11:18:29.698Z,1.00
2023-04-09T11:19:29.673Z,2.50
2023-04-09T11:20:29.695Z,1.40
2023-04-09T11:21:29.690Z,1.60
2023-04-09T11:22:29.686Z,1.50
2023-04-09T11:23:29.694Z,1.00
2023-04-09T11:24:29.652Z,1.20
2023-04-09T11:25:29.677Z,1.20
2023-04-09T11:26:29.659Z,1.30
2023-04-09T11:27:29.647Z,1.40
2023-04-09T11:28:29.723Z,2.30
2023-04-09T11:29:29.641Z,1.70
2023-04-09T11:30:29.641Z,2.00
2023-04-09T11:31:29.682Z,1.60
2023-04-09T11:32:29.666Z,1.50
2023-04-09T11:33:29.641Z,1.20
2023-04-09T11:34:29.612Z,2.30
2023-04-09T11:35:29.608Z,1.20
2023-04-09T11:36:29.615Z,1.90
2023-04-09T11:37:29.623Z,1.30
2023-04-09T11:38:29.618Z,1.80
2023-04-09T11:39:29.626Z,3.30
2023-04-09T11:40:29.595Z,1.20
2023-04-09T11:41:29.603Z,1.40
2023-04-09T11:42:29.607Z,1.00
2023-04-09T11:43:29.600Z,1.40
2023-04-09T11:44:29.572Z,1.90
2023-04-09T11:45:29.577Z,1.10
2023-04-09T11:46:29.611Z,1.60
2023-04-09T11:47:29.640Z,1.70
2023-04-09T11:48:29.560Z,1.00
2023-04-09T11:49:29.569Z,1.10
2023-04-09T11:50:29.546Z,1.70
2023-04-09T11:51:29.552Z,1.10
2023-04-09T11:52:29.558Z,3.70
2023-04-09T11:53:29.568Z,1.00
2023-04-09T11:54:29.580Z,1.80
2023-04-09T11:55:29.627Z,1.20
2023-04-09T11:56:29.543Z,1.20
2023-04-09T11:57:29.548Z,1.10
2023-04-09T11:58:29.527Z,1.30
2023-04-09T11:59:29.542Z,0.90
2023-04-09T12:00:29.518Z,1.20
2023-04-09T12:01:29.532Z,1.00
2023-04-09T12:02:29.614Z,1.00
2023-04-09T12:03:29.934Z,1.60
2023-04-09T12:04:29.594Z,1.40
2023-04-09T12:05:29.520Z,1.70
2023-04-09T12:06:29.528Z,1.60
2023-04-09T12:07:29.509Z,1.00
2023-04-09T12:08:29.494Z,1.40
2023-04-09T12:09:29.482Z,1.80
2023-04-09T12:10:29.527Z,1.00
2023-04-09T12:11:29.518Z,2.10
2023-04-09T12:12:29.492Z,0.90
2023-04-09T12:13:29.484Z,1.60
2023-04-09T12:14:29.475Z,1.20
2023-04-09T12:15:29.482Z,1.70
2023-04-09T12:16:29.518Z,1.60
2023-04-09T12:17:29.518Z,1.60
2023-04-09T12:18:29.470Z,1.30
2023-04-09T12:19:29.471Z,1.70
2023-04-09T12:20:29.464Z,1.00
2023-04-09T12:21:29.459Z,1.30
2023-04-09T12:22:29.441Z,2.10
2023-04-09T12:23:29.455Z,1.10
2023-04-09T12:24:29.442Z,1.10
2023-04-09T12:25:29.459Z,1.00
2023-04-09T12:26:29.470Z,1.10
2023-04-09T12:27:29.452Z,1.10
2023-04-09T12:28:29.431Z,1.10
2023-04-09T12:29:29.448Z,1.30
2023-04-09T12:30:29.444Z,2.40
2023-04-09T12:31:29.464Z,0.90
2023-04-09T12:32:29.434Z,2.00
2023-04-09T12:33:29.418Z,1.10
2023-04-09T12:34:29.415Z,1.30
2023-04-09T12:35:29.464Z,1.20
2023-04-09T12:36:29.414Z,1.10
2023-04-09T12:37:29.403Z,1.30
2023-04-09T12:38:29.381Z,2.20
2023-04-09T12:39:29.393Z,1.40
2023-04-09T12:40:29.394Z,1.10
2023-04-09T12:41:29.402Z,1.30
2023-04-09T12:42:29.386Z,1.00
2023-04-09T12:43:29.380Z,1.30
2023-04-09T12:44:29.359Z,0.90
2023-04-09T12:45:29.393Z,1.10
2023-04-09T12:46:29.432Z,1.10
2023-04-09T12:47:29.402Z,1.20
2023-04-09T12:48:29.346Z,1.90
2023-04-09T12:49:29.350Z,1.90
2023-04-09T12:50:29.357Z,1.10
2023-04-09T12:51:29.363Z,1.10
2023-04-09T12:52:29.360Z,0.90
2023-04-09T12:53:29.338Z,2.00
2023-04-09T12:54:29.339Z,1.70
2023-04-09T12:55:29.365Z,1.30
2023-04-09T12:56:29.914Z,2.00
2023-04-09T12:57:29.432Z,1.00
2023-04-09T12:58:29.346Z,11.10
2023-04-09T12:59:29.319Z,1.20
2023-04-09T13:00:29.319Z,1.30
2023-04-09T13:01:29.677Z,2.00
2023-04-09T13:02:29.372Z,1.00
2023-04-09T13:03:29.521Z,1.30
2023-04-09T13:04:29.413Z,2.00
2023-04-09T13:05:29.378Z,2.80
2023-04-09T13:06:29.312Z,2.60
2023-04-09T13:07:29.314Z,2.10
2023-04-09T13:08:29.322Z,1.30
2023-04-09T13:09:29.357Z,1.90
2023-04-09T13:10:29.299Z,1.20
2023-04-09T13:11:29.274Z,1.10
2023-04-09T13:12:29.279Z,0.90
2023-04-09T13:13:29.266Z,1.60
2023-04-09T13:14:29.314Z,1.10
2023-04-09T13:15:29.304Z,4.80
2023-04-09T13:16:29.303Z,1.20
2023-04-09T13:17:29.284Z,0.90